Eugene, OR (97405)

12:44 AM PDT on September 03, 2014 (GMT -0700)
Fox Hollow at Princess | Change Station
CLOSE
Current Station
Personal Weather Station
Location: Eugene, OR
Elevation: 720 ft
Nearby Weather Stations

Elev 720 ft 44.00 °N, 123.09 °W | Updated 54 seconds ago

Clear
Clear
59.9 °F
Feels Like 59.9 °F
N
0.0
Wind Variable Wind from NNE
Gusts 0.0 mph

Today
High -- | Low -- °F
--% Chance of Precip.
Yesterday
High -- | Low -- °F
Precip. -- in
6:38 AM 7:44 PM
First Quarter, 60% visible
Pressure 30.02 in
Visibility 10.0 miles
Clouds Clear
Dew Point 48 °F
Humidity 65%
Rainfall 0.00 in
Snow Depth Not available.
UV 0 out of 12
Pollen 3.00 out of 12
Ozone Good
PM2.5 Good
Flu Activity Not available.
METAR KEUG 030654Z AUTO 02003KT 10SM CLR 12/08 A3003 RMK AO2 SLP166 T01220083

More Conditions Fewer Conditions

Pressure 30.02 in
Visibility 10.0 miles
Clouds Clear
Dew Point 48 °F
Humidity 65%
Rainfall 0.00 in
Snow Depth Not available.
UV 0 out of 12
Pollen 3.00 out of 12
Ozone Good
PM2.5 Good
Flu Activity Not available.
METAR KEUG 030654Z AUTO 02003KT 10SM CLR 12/08 A3003 RMK AO2 SLP166 T01220083

More Conditions Fewer Conditions

10-Day Weather Forecast

Almanac

Astronomy

Sep. 03, 2014 Rise Set
Actual Time 6:38 AM PDT 7:44 PM PDT
Civil Twilight 6:08 AM PDT 8:14 PM PDT
Nautical Twilight 5:33 AM PDT 8:49 PM PDT
Astronomical Twilight 4:55 AM PDT 9:26 PM PDT
Moon 3:38 PM PDT 12:30 AM PDT
Length of Visible Light 14h 05m
Length of Day
13h 06m
Tomorrow will be 2m 56s shorter.
First Quarter, 60% of the Moon is Illuminated
Today
First Quarter
Sep 8
Full
Sep 15
Last Quarter
Sep 24
New
Oct 1
First Quarter

Today's Extremes

State Highs State Lows

Community

WunderPhotos

Upload Photos

1,749,899 photos uploaded!

Nearby

Air Quality

  Air Quality AQ Index Pollutant
Yesterday Good
PM2.5
Yesterday Good
OZONE
Current Good
PM2.5
Current Good
OZONE
Tuesday Good
PM2.5
Wednesday Good
PM2.5

Snow Depth

Station Depth Elevation
Holland Meadows 0 in 4900 ft
Roaring River 0 in 4900 ft
Salt Creek Falls 0 in 4000 ft
Irish Taylor 0 in 5500 ft
Cascade Summit 0 in 4880 ft

Earthquake Activity

City Distance Mag. Time & Date
No recent earthquake activity has been reported nearby.
Minimum magnitude displayed is 2.5.

Coastal Water Temperatures

Place Temperature
No Stations Reporting

Nearby Weather Stations